Thomaston, New York
Current Conditions -  °F | °C
As of 10:51 AM on Wednesday 22 Oct 2014 (Local Time) from KLGA Reporting Station
Light Rain Light Rain  
Wind Chill: 57°   Ceiling: 2000
Heat Index: 57°   Visibility: 10mi
Dew Point: 50°   Wind: 14mph
Humidity: 77%   Direction: 40°NE
Pressure: 29.92"   Gusts: NA
Location:  40.786°N, 73.7291°W
Report Text: KLGA 221451Z 04012KT 10SM -RA FEW016 OVC020 14/10 A2992 RMK AO2 SLP131 P0000 60014 T01390100 50001
Loading
Personal Weather Stations






























Interactive Weather Map
Tropical Storm Tracking
New forecast layout! Learn more

10-Day Weather Forecast

Advertisements
Track Severe Weather on mobile